Terminal Aerodrome Forecast
Issued by NWS Topeka, KS

Home | Current Version | Previous Version | Graphics & Text | Print | Product List | Glossary On
Versions: 1 2 3 4 5 6 7 8 9 10 11 12 13 14 15 16 17 18 19 20
000
FTUS43 KTOP 130500
TAFTOP
TAF
KTOP 130520Z 1306/1406 00000KT P6SM SKC
     FM130900 00000KT 4SM BR SKC
      TEMPO 1311/1314 2SM BR
     FM131400 13007KT P6SM SKC
     FM140100 13002KT P6SM BKN250=

USA.gov is the U.S. government's official web portal to all federal, state and local government web resources and services.